Time;durP1;ratioP1;P1;durP2;ratioP2;P2;SDS_P1;SDS_P2;PMS_P1;PMS_P2;Temp;Humidity;BMP_temperature;BMP_pressure;BME280_temperature;BME280_humidity;BME280_pressure;Samples;Min_cycle;Max_cycle;Signal;HPM_P1;HPM_P2
2022/03/20 00:01:33;;;;;;;;;;;5.80;91.00;;;4.17;58.69;102860.00;2568224;30;138244;-40
2022/03/20 00:04:00;;;;;;;;;;;5.80;91.40;;;4.16;58.18;102852.00;2567706;30;136829;-40
2022/03/20 00:06:28;;;;;;;;;;;5.70;91.20;;;4.16;58.29;102854.72;2567538;30;138415;-41
2022/03/20 00:08:55;;;;;;;;;;;5.80;91.20;;;4.09;59.35;102854.34;2568073;30;137246;-40
2022/03/20 00:11:23;;;;;;;;;;;5.70;92.10;;;4.02;59.68;102847.69;2567183;30;138395;-40
2022/03/20 00:13:50;;;;;;;;;;;5.70;91.90;;;3.94;60.20;102844.69;2569229;30;137237;-41
2022/03/20 00:16:17;;;;;;;;;;;5.60;92.20;;;4.01;60.63;102835.16;2568360;30;139236;-40
2022/03/20 00:18:45;;;;;;;;;;;5.60;92.70;;;3.92;60.24;102841.25;2568582;30;137181;-41
2022/03/20 00:21:13;;;;;;;;;;;5.50;92.40;;;3.93;61.33;102830.34;2568272;30;138242;-40
2022/03/20 00:23:43;;;;;;;;;;;5.50;93.00;;;3.92;61.48;102828.63;2569165;30;137169;-41
2022/03/20 00:26:10;;;;;;;;;;;5.50;93.20;;;3.98;60.68;102819.19;2567865;30;138943;-40
2022/03/20 00:28:38;;;;;;;;;;;5.50;92.80;;;4.00;60.47;102818.09;2568977;30;136745;-41
2022/03/20 00:31:05;;;;;;;;;;;5.60;92.70;;;3.95;60.77;102817.59;2568562;30;138298;-41
2022/03/20 00:33:32;;;;;;;;;;;5.50;92.90;;;3.97;60.72;102806.66;2567652;30;137356;-40
2022/03/20 00:36:00;;;;;;;;;;;5.60;92.90;;;3.94;60.54;102807.78;2566489;30;138610;-40
2022/03/20 00:38:27;;;;;;;;;;;5.50;92.80;;;3.88;60.99;102801.00;2568576;30;136977;-40
2022/03/20 00:40:55;;;;;;;;;;;5.50;93.00;;;3.90;60.43;102795.50;2568221;30;138164;-40
2022/03/20 00:43:22;;;;;;;;;;;5.50;92.60;;;3.82;61.34;102792.50;2567843;30;137050;-40
2022/03/20 00:45:49;;;;;;;;;;;5.40;93.10;;;3.84;61.52;102793.25;2566063;30;138496;-40
2022/03/20 00:48:21;;;;;;;;;;;5.40;93.40;;;3.79;61.40;102785.53;2568543;30;137256;-40
2022/03/20 00:50:49;;;;;;;;;;;5.40;93.30;;;3.81;61.46;102790.78;2568015;30;137195;-40
2022/03/20 00:53:17;;;;;;;;;;;5.40;93.30;;;3.76;61.80;102782.19;2567742;30;137157;-40
2022/03/20 00:55:44;;;;;;;;;;;5.40;93.50;;;3.80;61.67;102772.88;2568952;30;138384;-41
2022/03/20 00:58:12;;;;;;;;;;;5.40;93.50;;;3.80;60.79;102768.34;2568943;30;137008;-40
2022/03/20 01:00:39;;;;;;;;;;;5.40;93.00;;;3.77;61.26;102762.31;2567184;30;138622;-40
2022/03/20 01:03:07;;;;;;;;;;;5.40;93.30;;;3.69;62.04;102765.59;2569008;30;136796;-40
2022/03/20 01:05:35;;;;;;;;;;;5.30;93.60;;;3.58;62.37;102759.19;2567937;30;138173;-40
2022/03/20 01:08:03;;;;;;;;;;;5.20;93.70;;;3.52;62.81;102750.72;2567181;30;137457;-40
2022/03/20 01:10:34;;;;;;;;;;;5.20;94.00;;;3.43;63.54;102752.28;2568527;30;138117;-40
2022/03/20 01:13:02;;;;;;;;;;;5.10;94.50;;;3.41;63.49;102748.84;2566249;30;137436;-40
2022/03/20 01:15:35;;;;;;;;;;;5.10;94.40;;;3.44;62.87;102745.91;2568590;30;137619;-41
2022/03/20 01:18:03;;;;;;;;;;;5.00;94.40;;;3.45;62.78;102742.25;2568479;30;137101;-40
2022/03/20 01:20:30;;;;;;;;;;;5.00;94.20;;;3.47;63.32;102742.13;2568632;30;139241;-40
2022/03/20 01:22:58;;;;;;;;;;;5.10;94.70;;;3.44;62.93;102724.31;2569081;30;137231;-40
2022/03/20 01:25:26;;;;;;;;;;;5.10;94.50;;;3.53;62.76;102728.13;2568289;30;138367;-41
2022/03/20 01:27:53;;;;;;;;;;;5.10;94.30;;;3.51;62.76;102719.31;2568508;30;137109;-40
2022/03/20 01:30:21;;;;;;;;;;;5.10;94.40;;;3.48;63.01;102716.84;2565716;30;138146;-40
2022/03/20 01:32:48;;;;;;;;;;;5.10;94.50;;;3.46;62.58;102711.59;2568924;30;137252;-40
2022/03/20 01:35:16;;;;;;;;;;;5.10;94.30;;;3.23;63.39;102679.16;2574960;30;138862;-39
2022/03/20 01:37:43;;;;;;;;;;;5.00;94.70;;;3.34;62.99;102691.81;2569520;30;136906;-41
2022/03/20 01:40:11;;;;;;;;;;;5.00;94.50;;;3.40;63.71;102698.53;2570515;30;138653;-41
2022/03/20 01:42:39;;;;;;;;;;;5.00;94.90;;;3.41;63.44;102692.16;2569580;30;137015;-41
2022/03/20 01:45:17;;;;;;;;;;;5.00;94.70;;;3.43;63.21;102698.31;2570288;30;138001;-41
2022/03/20 01:47:47;;;;;;;;;;;5.10;94.80;;;3.38;63.41;102698.69;2566862;30;137288;-42
2022/03/20 01:50:20;;;;;;;;;;;5.00;94.70;;;3.39;63.10;102688.72;2568162;30;139154;-40
2022/03/20 01:52:52;;;;;;;;;;;5.00;94.60;;;3.21;63.55;102689.19;2570309;30;136711;-42
2022/03/20 01:55:22;;;;;;;;;;;4.90;94.90;;;3.24;63.68;102680.88;2566777;30;138490;-41
2022/03/20 01:57:49;;;;;;;;;;;4.90;95.10;;;3.33;63.25;102668.50;2568926;30;136925;-41
2022/03/20 02:00:19;;;;;;;;;;;4.90;94.80;;;3.27;63.85;102669.84;2568685;30;138947;-41
2022/03/20 02:02:47;;;;;;;;;;;4.90;95.10;;;3.23;63.69;102662.97;2569859;30;139948;-41
2022/03/20 02:05:15;;;;;;;;;;;4.90;95.10;;;3.18;63.27;102665.13;2569223;30;138589;-40
2022/03/20 02:07:44;;;;;;;;;;;4.80;94.80;;;3.12;63.56;102660.22;2570477;30;137053;-41
2022/03/20 02:10:11;;;;;;;;;;;4.80;95.10;;;3.12;63.21;102660.22;2569280;30;138098;-41
2022/03/20 02:12:40;;;;;;;;;;;4.80;94.80;;;3.10;63.40;102656.78;2571491;30;137049;-40
2022/03/20 02:15:11;;;;;;;;;;;4.70;94.90;;;3.14;63.22;102650.16;2570136;30;138487;-40
2022/03/20 02:17:40;;;;;;;;;;;4.70;94.70;;;3.09;62.64;102650.53;2569813;30;137039;-41
2022/03/20 02:20:09;;;;;;;;;;;4.70;94.60;;;3.04;63.92;102652.69;2570085;30;138083;-41
2022/03/20 02:22:42;;;;;;;;;;;4.70;95.20;;;2.97;63.41;102649.63;2569123;30;137272;-41
2022/03/20 02:25:11;;;;;;;;;;;4.60;95.10;;;2.95;63.96;102653.41;2568272;30;139257;-41
2022/03/20 02:27:43;;;;;;;;;;;4.60;95.10;;;2.88;64.20;102648.50;2569028;30;136681;-41
2022/03/20 02:30:14;;;;;;;;;;;4.50;95.40;;;2.85;64.38;102640.66;2570029;30;138405;-41
2022/03/20 02:32:45;;;;;;;;;;;4.50;95.70;;;2.89;64.54;102635.88;2569267;30;137455;-41
2022/03/20 02:35:15;;;;;;;;;;;4.50;95.90;;;2.92;64.26;102635.66;2569794;30;138264;-41
2022/03/20 02:37:46;;;;;;;;;;;4.50;95.50;;;2.98;65.28;102631.59;2569195;30;137826;-41
2022/03/20 02:40:15;;;;;;;;;;;4.60;96.50;;;2.99;64.23;102628.81;2570845;30;138167;-41
2022/03/20 02:42:48;;;;;;;;;;;4.60;95.80;;;3.10;63.73;102621.72;2569415;30;137830;-41
2022/03/20 02:45:20;;;;;;;;;;;4.70;95.50;;;3.05;63.82;102615.81;2570350;30;139125;-41
2022/03/20 02:47:49;;;;;;;;;;;4.60;95.40;;;3.06;64.22;102609.44;2569888;30;137195;-41
2022/03/20 02:50:27;;;;;;;;;;;4.60;95.90;;;3.12;62.20;102609.84;2570167;30;139012;-41
2022/03/20 02:53:09;;;;;;;;;;;4.60;94.70;;;3.14;63.27;102615.09;2568593;30;137122;-43
2022/03/20 02:55:38;;;;;;;;;;;4.70;95.50;;;3.25;61.21;102620.53;2571513;30;138344;-41
2022/03/20 02:58:11;;;;;;;;;;;4.80;94.10;;;3.29;61.20;102611.22;2570350;30;137120;-41
2022/03/20 03:00:41;;;;;;;;;;;4.90;94.30;;;3.30;61.24;102615.63;2570507;30;137375;-41
2022/03/20 03:03:11;;;;;;;;;;;4.90;94.00;;;3.32;60.60;102610.13;2569945;30;136567;-40
2022/03/20 03:05:41;;;;;;;;;;;4.90;93.60;;;3.37;60.73;102602.53;2570721;30;138839;-41
2022/03/20 03:10:56;;;;;;;;;;;5.00;93.20;;;3.40;61.19;102594.19;2569887;30;137885;-41
2022/03/20 03:13:37;;;;;;;;;;;4.90;93.80;;;3.36;60.48;102591.84;2571234;30;137155;-42
2022/03/20 03:16:11;;;;;;;;;;;5.00;93.50;;;3.34;61.07;102588.41;2569584;30;137275;-41
2022/03/20 03:18:43;;;;;;;;;;;4.90;94.10;;;3.36;59.59;102587.31;2573435;30;137034;-41
2022/03/20 03:21:13;;;;;;;;;;;5.00;93.00;;;3.36;60.54;102584.63;2571375;30;138571;-41
2022/03/20 03:23:40;;;;;;;;;;;4.90;93.40;;;3.29;60.29;102586.94;2569790;30;138252;-41
2022/03/20 03:26:08;;;;;;;;;;;4.90;93.30;;;3.27;60.47;102583.50;2569897;30;139113;-40
2022/03/20 03:28:36;;;;;;;;;;;4.90;93.40;;;3.36;60.41;102575.66;2570759;30;136978;-41
2022/03/20 03:31:08;;;;;;;;;;;4.90;93.50;;;3.33;58.82;102570.50;2570698;30;137335;-41
2022/03/20 03:36:26;;;;;;;;;;;5.00;93.00;;;3.33;60.02;102581.28;2569058;30;138258;-41
2022/03/20 03:38:54;;;;;;;;;;;4.90;93.20;;;3.31;59.47;102565.22;2566926;30;137218;-41
2022/03/20 03:41:21;;;;;;;;;;;4.90;92.70;;;3.26;59.03;102565.59;2569457;30;139130;-41
2022/03/20 03:43:49;;;;;;;;;;;4.90;92.40;;;3.35;58.63;102558.63;2569952;30;137074;-41
2022/03/20 03:46:16;;;;;;;;;;;4.90;92.40;;;3.30;60.13;102545.47;2567769;30;138947;-41
2022/03/20 03:48:43;;;;;;;;;;;4.90;93.10;;;3.28;60.40;102544.75;2571287;30;138036;-41
2022/03/20 03:51:10;;;;;;;;;;;4.90;93.20;;;3.24;59.76;102550.50;2569266;30;137047;-41
2022/03/20 03:53:38;;;;;;;;;;;4.80;92.90;;;3.25;60.16;102547.69;2570024;30;136997;-41
2022/03/20 03:56:06;;;;;;;;;;;4.80;93.30;;;3.22;60.41;102537.16;2568165;30;137819;-41
2022/03/20 03:58:33;;;;;;;;;;;4.80;93.20;;;3.21;60.63;102551.63;2569843;30;138787;-41
2022/03/20 04:01:01;;;;;;;;;;;4.80;93.40;;;3.23;59.98;102538.00;2569587;30;139082;-41
2022/03/20 04:03:28;;;;;;;;;;;4.80;93.10;;;3.25;59.73;102545.00;2572483;30;137042;-41
2022/03/20 04:06:02;;;;;;;;;;;4.80;93.10;;;3.29;59.18;102538.38;2567858;30;138499;-42
2022/03/20 04:08:32;;;;;;;;;;;4.90;92.60;;;3.28;60.27;102533.94;2568200;30;137126;-41
2022/03/20 04:11:00;;;;;;;;;;;4.80;93.20;;;3.27;59.72;102532.25;2567592;30;138427;-41
2022/03/20 04:13:29;;;;;;;;;;;4.80;93.00;;;3.22;61.05;102518.25;2569741;30;136982;-41
2022/03/20 04:15:56;;;;;;;;;;;4.80;93.80;;;3.22;60.29;102515.56;2569469;30;137542;-41
2022/03/20 04:18:24;;;;;;;;;;;4.80;93.50;;;3.23;60.71;102509.19;2569208;30;137581;-41
2022/03/20 04:20:52;;;;;;;;;;;4.80;93.60;;;3.24;59.75;102504.63;2568228;30;137413;-40
2022/03/20 04:26:06;;;;;;;;;;;4.80;93.20;;;3.39;59.27;102500.72;2568467;30;138105;-41
2022/03/20 04:28:34;;;;;;;;;;;4.90;92.80;;;3.38;59.92;102496.31;2569103;30;137321;-41
2022/03/20 04:31:02;;;;;;;;;;;4.90;93.20;;;3.33;59.56;102489.56;2566407;30;139322;-41
2022/03/20 04:33:31;;;;;;;;;;;4.90;92.80;;;3.27;58.91;102490.91;2570866;30;137100;-41
2022/03/20 04:35:59;;;;;;;;;;;4.90;92.30;;;3.20;59.35;102495.94;2569975;30;138053;-41
2022/03/20 04:38:27;;;;;;;;;;;4.80;92.50;;;3.12;60.87;102492.97;2569308;30;137933;-41
2022/03/20 04:40:55;;;;;;;;;;;4.80;93.40;;;3.08;59.41;102500.47;2568469;30;138226;-42
2022/03/20 04:43:22;;;;;;;;;;;4.70;92.70;;;3.00;59.91;102495.69;2570762;30;137069;-41
2022/03/20 04:45:50;;;;;;;;;;;4.70;92.80;;;2.97;58.76;102503.16;2568779;30;138753;-41
2022/03/20 04:59:22;;;;;;;;;;;4.40;92.60;;;2.57;59.67;102481.03;2569674;30;137871;-41
2022/03/20 05:01:49;;;;;;;;;;;4.30;92.50;;;2.54;59.85;102475.91;2570014;30;139232;-40
2022/03/20 05:04:17;;;;;;;;;;;4.20;92.90;;;2.50;59.96;102473.53;2569869;30;137018;-41
2022/03/20 05:06:44;;;;;;;;;;;4.20;92.70;;;2.37;60.46;102461.00;2570005;30;138354;-41
2022/03/20 05:14:44;;;;;;;;;;;3.90;93.80;;;2.13;62.68;102469.13;2569139;30;137269;-44
2022/03/20 05:17:12;;;;;;;;;;;3.80;94.30;;;2.04;61.84;102465.31;2569118;30;137165;-40
2022/03/20 05:19:43;;;;;;;;;;;3.80;93.80;;;1.92;62.42;102466.25;2569377;30;136993;-41
2022/03/20 05:22:10;;;;;;;;;;;3.60;94.10;;;1.89;62.50;102461.09;2571243;30;138102;-41
2022/03/20 05:24:39;;;;;;;;;;;3.60;94.20;;;1.86;62.22;102457.66;2570626;30;137153;-41
2022/03/20 05:27:07;;;;;;;;;;;3.60;94.10;;;1.83;62.41;102462.41;2567821;30;138317;-41
2022/03/20 05:29:35;;;;;;;;;;;3.50;94.20;;;1.76;62.30;102453.06;2569154;30;137417;-41
2022/03/20 05:32:04;;;;;;;;;;;3.50;94.10;;;1.82;62.59;102460.69;2568796;30;138982;-41
2022/03/20 05:34:36;;;;;;;;;;;3.50;94.50;;;1.77;62.11;102458.31;2569937;30;136772;-41
2022/03/20 05:37:06;;;;;;;;;;;3.50;94.20;;;1.71;62.92;102454.25;2567264;30;138283;-41
2022/03/20 05:39:34;;;;;;;;;;;3.40;94.70;;;1.73;63.17;102454.16;2570018;30;137014;-41
2022/03/20 05:42:03;;;;;;;;;;;3.40;94.80;;;1.74;63.32;102450.47;2569932;30;138857;-41
2022/03/20 05:44:32;;;;;;;;;;;3.40;94.90;;;1.72;63.35;102444.34;2570927;30;137688;-41
2022/03/20 05:47:01;;;;;;;;;;;3.40;95.00;;;1.68;63.30;102442.88;2570558;30;138589;-44
2022/03/20 05:49:28;;;;;;;;;;;3.30;94.90;;;1.79;63.07;102440.22;2571205;30;136772;-43
2022/03/20 05:51:57;;;;;;;;;;;3.40;94.90;;;1.79;62.18;102434.84;2567410;30;139206;-41
2022/03/20 05:54:25;;;;;;;;;;;3.50;94.40;;;1.83;62.14;102441.72;2569767;30;137130;-41
2022/03/20 05:59:38;;;;;;;;;;;3.50;94.80;;;1.89;62.03;102439.56;2568539;30;137978;-41
2022/03/20 06:02:09;;;;;;;;;;;3.50;94.40;;;1.96;61.58;102440.81;2570327;30;138074;-41
2022/03/20 06:04:38;;;;;;;;;;;3.60;94.00;;;2.04;62.27;102443.75;2568520;30;137028;-41
2022/03/20 06:07:07;;;;;;;;;;;3.60;94.60;;;2.16;60.66;102444.66;2569408;30;138082;-41
2022/03/20 06:09:36;;;;;;;;;;;3.70;93.60;;;2.21;60.47;102447.84;2565919;30;137522;-41
2022/03/20 06:12:03;;;;;;;;;;;3.80;93.60;;;2.24;61.12;102444.94;2568595;30;139066;-41
2022/03/20 06:14:32;;;;;;;;;;;3.90;94.00;;;2.30;59.96;102457.06;2567688;30;137133;-41
2022/03/20 06:17:00;;;;;;;;;;;3.90;93.10;;;2.31;60.68;102445.31;2570309;30;138276;-41
2022/03/20 06:19:28;;;;;;;;;;;3.90;93.50;;;2.39;60.29;102456.38;2568927;30;136917;-41
2022/03/20 06:21:56;;;;;;;;;;;4.00;93.20;;;2.38;59.87;102454.63;2568070;30;137787;-41
2022/03/20 06:24:24;;;;;;;;;;;4.00;93.20;;;2.47;59.69;102457.63;2568431;30;137241;-43
2022/03/20 06:26:51;;;;;;;;;;;4.10;93.20;;;2.50;59.47;102473.53;2570714;30;138966;-41
2022/03/20 06:29:19;;;;;;;;;;;4.00;92.70;;;2.59;59.53;102475.53;2569263;30;137575;-41
2022/03/20 06:31:49;;;;;;;;;;;4.10;93.10;;;2.64;59.26;102470.63;2570898;30;139066;-41
2022/03/20 06:34:18;;;;;;;;;;;4.20;92.90;;;2.81;59.78;102458.53;2570777;30;136982;-42
2022/03/20 06:36:46;;;;;;;;;;;4.30;93.40;;;2.88;59.85;102459.75;2568868;30;137644;-41
2022/03/20 06:39:13;;;;;;;;;;;4.40;93.30;;;2.91;59.22;102458.66;2569084;30;137700;-41
2022/03/20 06:41:41;;;;;;;;;;;4.40;92.90;;;2.96;59.45;102461.00;2568985;30;138518;-41
2022/03/20 06:44:15;;;;;;;;;;;4.50;92.90;;;3.01;58.41;102450.69;2572846;30;137893;-41
2022/03/20 06:46:44;;;;;;;;;;;4.60;92.20;;;3.02;57.18;102447.00;2571025;30;138986;-41
2022/03/20 06:49:12;;;;;;;;;;;4.60;91.50;;;2.97;57.64;102435.75;2569271;30;137168;-41
2022/03/20 06:51:39;;;;;;;;;;;4.60;91.90;;;3.08;57.07;102451.06;2569409;30;138315;-41
2022/03/20 06:54:07;;;;;;;;;;;4.60;91.60;;;3.07;57.89;102450.22;2570240;30;137096;-41
2022/03/20 06:56:34;;;;;;;;;;;4.70;92.00;;;3.19;57.45;102445.69;2569497;30;138580;-41
2022/03/20 06:59:01;;;;;;;;;;;4.70;91.70;;;3.27;57.88;102436.94;2569841;30;136971;-41
2022/03/20 07:01:30;;;;;;;;;;;4.80;92.20;;;3.33;57.03;102428.38;2569082;30;137372;-41
2022/03/20 07:03:58;;;;;;;;;;;4.90;91.40;;;3.51;56.94;102425.13;2567499;30;137925;-42
2022/03/20 07:06:28;;;;;;;;;;;5.00;91.60;;;3.66;56.16;102437.38;2570199;30;139162;-41
2022/03/20 07:08:59;;;;;;;;;;;5.10;91.10;;;3.81;55.74;102421.72;2569411;30;137293;-41
2022/03/20 07:11:32;;;;;;;;;;;5.20;90.70;;;3.89;56.53;102424.63;2570577;30;138210;-41
2022/03/20 07:14:01;;;;;;;;;;;5.40;91.30;;;4.03;54.99;102411.81;2569980;30;137927;-45
2022/03/20 07:16:31;;;;;;;;;;;5.40;90.50;;;3.97;53.79;102379.91;2571001;30;137048;-41
2022/03/20 07:18:59;;;;;;;;;;;5.60;89.10;;;4.14;54.73;102392.00;2570672;30;138327;-43
2022/03/20 07:21:28;;;;;;;;;;;5.60;90.00;;;4.25;55.60;102405.44;2570601;30;138905;-43
2022/03/20 07:23:57;;;;;;;;;;;5.70;90.40;;;4.36;53.67;102396.41;2568773;30;137400;-41
2022/03/20 07:32:04;;;;;;;;;;;5.90;87.10;;;4.35;52.75;102394.69;2570286;30;138953;-41
2022/03/20 07:34:34;;;;;;;;;;;5.90;86.70;;;4.28;52.82;102388.13;2568297;30;137645;-41
2022/03/20 07:37:03;;;;;;;;;;;5.80;86.40;;;4.17;53.19;102381.78;2582116;30;139109;-39
2022/03/20 07:39:31;;;;;;;;;;;5.80;86.80;;;4.12;53.99;102378.63;2566130;30;137361;-39
2022/03/20 07:41:59;;;;;;;;;;;5.70;87.90;;;4.10;54.14;102371.63;2568805;30;138352;-40
2022/03/20 07:44:31;;;;;;;;;;;5.70;88.00;;;4.14;54.89;102375.78;2566692;30;137299;-39
2022/03/20 07:46:58;;;;;;;;;;;5.70;89.10;;;4.22;55.45;102373.28;2568961;30;138359;-40
2022/03/20 07:49:26;;;;;;;;;;;5.70;90.00;;;4.35;55.11;102356.84;2569171;30;136603;-40
2022/03/20 07:51:57;;;;;;;;;;;5.80;90.30;;;4.61;52.86;102349.16;2569708;30;137327;-40
2022/03/20 07:54:25;;;;;;;;;;;6.00;87.50;;;4.84;53.91;102330.03;2567780;30;136779;-39
2022/03/20 07:56:53;;;;;;;;;;;6.20;89.10;;;5.11;55.28;102342.06;2567945;30;138261;-40
2022/03/20 07:59:20;;;;;;;;;;;6.40;90.40;;;5.31;54.25;102345.69;2568848;30;137020;-40
2022/03/20 08:01:49;;;;;;;;;;;6.60;89.90;;;5.58;52.16;102340.56;2565551;30;138283;-40
2022/03/20 08:04:16;;;;;;;;;;;6.80;87.80;;;5.81;50.20;102342.97;2567562;30;137152;-40
2022/03/20 08:06:44;;;;;;;;;;;7.10;84.50;;;5.93;49.74;102339.09;2568053;30;137127;-40
2022/03/20 08:09:11;;;;;;;;;;;7.30;84.00;;;6.06;51.23;102325.28;2566650;30;136759;-40
2022/03/20 08:11:42;;;;;;;;;;;7.40;85.40;;;6.10;50.75;102317.72;2568306;30;137418;-40
2022/03/20 08:14:09;;;;;;;;;;;7.50;84.90;;;6.05;49.45;102326.28;2566425;30;137027;-40
2022/03/20 08:16:39;;;;;;;;;;;7.50;82.40;;;6.08;50.29;102317.84;2568300;30;137788;-40
2022/03/20 08:19:08;;;;;;;;;;;7.50;83.70;;;6.08;49.23;102317.84;2568665;30;137071;-39
2022/03/20 08:21:37;;;;;;;;;;;7.60;82.10;;;6.21;50.67;102306.69;2566913;30;137536;-40
2022/03/20 08:24:05;;;;;;;;;;;7.60;84.20;;;6.32;50.99;102308.38;2568403;30;136764;-40
2022/03/20 08:26:33;;;;;;;;;;;7.70;84.30;;;6.40;50.28;102315.78;2565687;30;138491;-39
2022/03/20 08:29:01;;;;;;;;;;;7.80;83.50;;;6.50;50.41;102315.75;2569147;30;136967;-40
2022/03/20 08:31:30;;;;;;;;;;;7.80;83.80;;;6.65;52.70;102313.41;2568296;30;138245;-39
2022/03/20 08:33:57;;;;;;;;;;;8.00;86.60;;;6.65;48.79;102314.25;2568338;30;136702;-39
2022/03/20 08:36:25;;;;;;;;;;;8.10;81.90;;;6.75;50.31;102309.63;2567319;30;137419;-40
2022/03/20 08:38:52;;;;;;;;;;;8.10;83.70;;;6.84;48.84;102304.28;2566350;30;136928;-40
2022/03/20 08:41:20;;;;;;;;;;;8.20;82.20;;;6.94;49.40;102312.38;2568049;30;138255;-40
2022/03/20 08:43:48;;;;;;;;;;;8.30;82.50;;;7.05;50.47;102320.34;2567393;30;138029;-40
2022/03/20 08:46:18;;;;;;;;;;;8.40;84.30;;;7.13;50.18;102330.41;2566739;30;137467;-40
2022/03/20 08:48:46;;;;;;;;;;;8.40;84.00;;;7.15;48.33;102318.41;2567594;30;136793;-40
2022/03/20 08:51:13;;;;;;;;;;;8.50;81.10;;;7.29;48.43;102317.00;2568115;30;138296;-40
2022/03/20 08:53:41;;;;;;;;;;;8.60;81.40;;;7.32;49.09;102305.00;2567187;30;136700;-40
2022/03/20 08:56:09;;;;;;;;;;;8.70;82.00;;;7.39;47.35;102299.78;2568363;30;138253;-40
2022/03/20 08:58:37;;;;;;;;;;;8.80;79.80;;;7.34;49.26;102303.00;2568700;30;136830;-40
2022/03/20 09:01:04;;;;;;;;;;;8.80;81.90;;;7.43;51.53;102302.03;2568393;30;139099;-40
2022/03/20 09:03:32;;;;;;;;;;;8.80;84.70;;;7.65;51.74;102310.72;2569335;30;136754;-40
2022/03/20 09:05:59;;;;;;;;;;;8.90;86.00;;;7.86;50.06;102314.97;2567464;30;138315;-41
2022/03/20 09:08:27;;;;;;;;;;;9.10;84.30;;;8.07;48.27;102299.13;2567108;30;137935;-39
2022/03/20 09:10:54;;;;;;;;;;;9.30;81.40;;;8.28;48.31;102303.34;2565408;30;137937;-40
2022/03/20 09:13:21;;;;;;;;;;;9.50;82.00;;;8.52;46.27;102298.25;2567968;30;136696;-40
2022/03/20 09:18:59;;;;;;;;;;;9.70;79.20;;;8.64;46.82;102299.66;2568044;30;137724;-40
2022/03/20 09:21:22;;;;;;;;;;;10.10;80.30;;;9.05;47.43;102288.06;2567839;30;138511;-40
2022/03/20 09:23:49;;;;;;;;;;;10.30;80.50;;;9.12;47.39;102296.41;2568230;30;137803;-39
2022/03/20 09:26:18;;;;;;;;;;;10.40;80.30;;;9.00;45.44;102298.59;2568285;30;138233;-40
2022/03/20 09:28:46;;;;;;;;;;;10.40;77.30;;;9.06;47.70;102293.34;2568679;30;137230;-40
2022/03/20 09:31:15;;;;;;;;;;;10.40;79.90;;;9.17;47.01;102299.47;2567202;30;138133;-40
2022/03/20 09:33:43;;;;;;;;;;;10.50;79.10;;;9.20;45.09;102293.69;2566879;30;137084;-40
2022/03/20 09:36:11;;;;;;;;;;;10.60;76.60;;;9.22;45.54;102294.38;2567989;30;137300;-40
2022/03/20 09:38:39;;;;;;;;;;;10.60;77.30;;;9.25;45.76;102301.38;2567582;30;137162;-40
2022/03/20 09:41:09;;;;;;;;;;;10.60;77.50;;;9.18;46.13;102290.28;2568163;30;138424;-40
2022/03/20 09:43:41;;;;;;;;;;;10.60;77.50;;;9.15;45.85;102296.94;2567931;30;137001;-40
2022/03/20 09:46:15;;;;;;;;;;;10.50;76.50;;;9.14;46.56;102286.22;2567312;30;139046;-40
2022/03/20 09:48:46;;;;;;;;;;;10.50;78.20;;;9.15;48.20;102290.63;2568900;30;139108;-39
2022/03/20 09:51:13;;;;;;;;;;;10.50;79.90;;;9.10;46.02;102291.13;2568361;30;138180;-40
2022/03/20 09:53:41;;;;;;;;;;;10.50;77.20;;;9.09;47.28;102283.13;2567902;30;136794;-40
2022/03/20 09:56:10;;;;;;;;;;;10.40;78.90;;;9.11;47.20;102287.38;2567256;30;137394;-40
2022/03/20 09:58:38;;;;;;;;;;;10.40;79.20;;;9.12;46.84;102286.34;2569654;30;136637;-40
2022/03/20 10:01:05;;;;;;;;;;;10.50;78.50;;;9.10;45.42;102290.28;2568389;30;137165;-40
2022/03/20 10:03:33;;;;;;;;;;;10.50;76.30;;;9.19;48.25;102295.59;2567535;30;137120;-40
2022/03/20 10:06:17;;;;;;;;;;;10.50;80.00;;;9.21;46.15;102309.03;2567781;30;137183;-40
2022/03/20 10:08:56;;;;;;;;;;;10.50;77.70;;;9.13;45.96;102292.69;2567114;30;137568;-40
2022/03/20 10:11:26;;;;;;;;;;;10.50;76.90;;;8.95;45.94;102300.97;2569109;30;138220;-40
2022/03/20 10:14:19;;;;;;;;;;;10.40;76.50;;;8.96;46.70;102292.63;2568158;30;137259;-40
2022/03/20 10:17:16;;;;;;;;;;;10.40;78.10;;;9.00;47.52;102299.44;2567621;30;139691;-40
2022/03/20 10:19:43;;;;;;;;;;;10.40;79.00;;;9.09;47.56;102294.88;2568270;30;136764;-40
2022/03/20 10:22:14;;;;;;;;;;;10.40;78.90;;;9.25;47.05;102280.44;2569739;30;136819;-40
2022/03/20 10:24:48;;;;;;;;;;;10.60;78.70;;;9.32;47.22;102281.47;2568714;30;137730;-39
2022/03/20 10:27:16;;;;;;;;;;;10.60;79.10;;;9.44;47.10;102283.88;2568992;30;138255;-40
2022/03/20 10:29:56;;;;;;;;;;;10.70;78.60;;;9.53;46.06;102282.84;2569939;30;136956;-40
2022/03/20 10:32:24;;;;;;;;;;;10.80;77.60;;;9.68;47.60;102280.31;2568943;30;138482;-40
2022/03/20 10:35:01;;;;;;;;;;;10.90;79.40;;;9.87;47.76;102270.91;2569442;30;137051;-40
2022/03/20 10:37:51;;;;;;;;;;;11.00;80.20;;;10.04;46.55;102260.81;2567816;30;137487;-40
2022/03/20 10:40:21;;;;;;;;;;;11.20;78.30;;;10.31;48.41;102264.16;2569420;30;137235;-40
2022/03/20 10:43:09;;;;;;;;;;;11.40;81.10;;;10.78;46.04;102258.88;2568785;30;138890;-40
2022/03/20 10:45:50;;;;;;;;;;;11.70;79.50;;;10.99;43.88;102260.09;2567923;30;137914;-40
2022/03/20 10:48:31;;;;;;;;;;;12.00;78.40;;;11.04;43.31;102266.75;2568172;30;137336;-40
2022/03/20 10:51:00;;;;;;;;;;;12.20;76.70;;;11.29;44.78;102261.13;2568424;30;136858;-40
2022/03/20 10:53:27;;;;;;;;;;;12.40;76.90;;;11.48;43.99;102257.03;2568761;30;138473;-40
2022/03/20 10:56:05;;;;;;;;;;;12.60;75.60;;;11.77;45.10;102260.03;2568616;30;137189;-40
2022/03/20 10:58:39;;;;;;;;;;;12.80;77.70;;;11.83;42.98;102267.50;2568459;30;138258;-39
2022/03/20 11:01:08;;;;;;;;;;;13.00;74.60;;;12.15;45.01;102261.91;2568143;30;138279;-40
2022/03/20 11:03:41;;;;;;;;;;;13.20;77.40;;;12.28;42.44;102258.50;2569466;30;138078;-40
2022/03/20 11:06:09;;;;;;;;;;;13.30;74.10;;;12.48;42.19;102253.31;2568568;30;136710;-40
2022/03/20 11:08:37;;;;;;;;;;;13.50;73.50;;;12.72;44.65;102249.38;2567787;30;137833;-40
2022/03/20 11:11:10;;;;;;;;;;;13.70;76.60;;;12.83;42.16;102244.47;2565771;30;137175;-40
2022/03/20 11:13:40;;;;;;;;;;;13.80;73.00;;;12.64;43.21;102233.94;2568790;30;138562;-41
2022/03/20 11:16:09;;;;;;;;;;;13.90;73.50;;;12.64;43.34;102233.94;2567876;30;137182;-40
2022/03/20 11:18:39;;;;;;;;;;;13.80;74.00;;;13.01;43.66;102231.19;2568807;30;138446;-40
2022/03/20 11:21:09;;;;;;;;;;;14.00;75.00;;;13.15;41.55;102232.19;2568849;30;138121;-40
2022/03/20 11:23:37;;;;;;;;;;;14.30;72.40;;;13.25;41.80;102240.03;2569129;30;137257;-40
2022/03/20 11:26:07;;;;;;;;;;;14.30;72.20;;;13.21;41.97;102239.63;2568151;30;136966;-40
2022/03/20 11:28:45;;;;;;;;;;;14.40;73.00;;;13.31;43.38;102253.00;2568128;30;139508;-40
2022/03/20 11:31:14;;;;;;;;;;;14.40;74.30;;;13.22;42.65;102260.50;2569363;30;136989;-40
2022/03/20 11:33:44;;;;;;;;;;;14.40;72.90;;;12.94;41.38;102257.66;2569481;30;138173;-40
2022/03/20 11:36:17;;;;;;;;;;;14.20;70.90;;;12.86;42.64;102249.56;2568075;30;137968;-40
2022/03/20 11:39:08;;;;;;;;;;;14.10;72.60;;;13.02;43.40;102246.59;2568884;30;138410;-40
2022/03/20 11:41:36;;;;;;;;;;;14.20;75.20;;;12.95;41.52;102237.44;2568798;30;136877;-40
2022/03/20 11:44:20;;;;;;;;;;;14.10;71.70;;;12.94;41.98;102236.59;2566700;30;138478;-40
2022/03/20 11:47:12;;;;;;;;;;;14.10;71.80;;;12.87;42.00;102230.22;2568469;30;137242;-40
2022/03/20 11:49:40;;;;;;;;;;;14.10;72.10;;;12.62;42.00;102233.28;2568669;30;137741;-40
2022/03/20 11:52:12;;;;;;;;;;;14.00;71.30;;;12.41;42.89;102233.22;2567041;30;138379;-40
2022/03/20 11:54:39;;;;;;;;;;;13.80;72.00;;;12.26;43.19;102238.69;2568913;30;139049;-39
2022/03/20 11:57:28;;;;;;;;;;;13.70;72.50;;;12.05;45.16;102229.34;2566841;30;137461;-40
2022/03/20 11:59:57;;;;;;;;;;;13.40;73.60;;;11.92;45.69;102225.34;2567137;30;138302;-40
2022/03/20 12:02:33;;;;;;;;;;;13.30;75.30;;;11.96;46.48;102216.78;2568464;30;137851;-40